地図

経路データ

SID SEASON NUMBER BASIN SUBBASIN NAME ISO_TIME NATURE LAT LON WMO_WIND WMO_PRES WMO_AGENCY TRACK_TYPE DIST2LAND LANDFALL IFLAG USA_AGENCY USA_ATCF_ID USA_LAT USA_LON USA_RECORD USA_STATUS USA_WIND USA_PRES USA_SSHS USA_R34_NE USA_R34_SE USA_R34_SW USA_R34_NW USA_R50_NE USA_R50_SE USA_R50_SW USA_R50_NW USA_R64_NE USA_R64_SE USA_R64_SW USA_R64_NW USA_POCI USA_ROCI USA_RMW USA_EYE TOKYO_LAT TOKYO_LON TOKYO_GRADE TOKYO_WIND TOKYO_PRES TOKYO_R50_DIR TOKYO_R50_LONG TOKYO_R50_SHORT TOKYO_R30_DIR TOKYO_R30_LONG TOKYO_R30_SHORT TOKYO_LAND CMA_LAT CMA_LON CMA_CAT CMA_WIND CMA_PRES HKO_LAT HKO_LON HKO_CAT HKO_WIND HKO_PRES NEWDELHI_LAT NEWDELHI_LON NEWDELHI_GRADE NEWDELHI_WIND NEWDELHI_PRES NEWDELHI_CI NEWDELHI_DP NEWDELHI_POCI REUNION_LAT REUNION_LON REUNION_TYPE REUNION_WIND REUNION_PRES REUNION_TNUM REUNION_CI REUNION_RMW REUNION_R34_NE REUNION_R34_SE REUNION_R34_SW REUNION_R34_NW REUNION_R50_NE REUNION_R50_SE REUNION_R50_SW REUNION_R50_NW REUNION_R64_NE REUNION_R64_SE REUNION_R64_SW REUNION_R64_NW BOM_LAT BOM_LON BOM_TYPE BOM_WIND BOM_PRES BOM_TNUM BOM_CI BOM_RMW BOM_R34_NE BOM_R34_SE BOM_R34_SW BOM_R34_NW BOM_R50_NE BOM_R50_SE BOM_R50_SW BOM_R50_NW BOM_R64_NE BOM_R64_SE BOM_R64_SW BOM_R64_NW BOM_ROCI BOM_POCI BOM_EYE BOM_POS_METHOD BOM_PRES_METHOD NADI_LAT NADI_LON NADI_CAT NADI_WIND NADI_PRES WELLINGTON_LAT WELLINGTON_LON WELLINGTON_WIND WELLINGTON_PRES DS824_LAT DS824_LON DS824_STAGE DS824_WIND DS824_PRES TD9636_LAT TD9636_LON TD9636_STAGE TD9636_WIND TD9636_PRES TD9635_LAT TD9635_LON TD9635_WIND TD9635_PRES TD9635_ROCI NEUMANN_LAT NEUMANN_LON NEUMANN_CLASS NEUMANN_WIND NEUMANN_PRES MLC_LAT MLC_LON MLC_CLASS MLC_WIND MLC_PRES USA_GUST BOM_GUST BOM_GUST_PER REUNION_GUST REUNION_GUST_PER USA_SEAHGT USA_SEARAD_NE USA_SEARAD_SE USA_SEARAD_SW USA_SEARAD_NW STORM_SPEED STORM_DIR
1945268N12143 1945 65 WP MM JEAN 1945-09-25 00:00:00 TS 11.5000 142.500 main 1542 1539 O________OOO__ jtwc_wp WP211945 11.5000 142.500 25 -1 11.5000 142.500 TC 25 11.5000 142.500 1 25 11.5000 142.500 25 1005 60 10 300
1945268N12143 1945 65 WP MM JEAN 1945-09-25 03:00:00 TS 11.7506 142.051 main 1562 1556 P________PPP__ WP211945 11.7502 142.040 25 -1 11.7502 142.040 TC 25 11.7520 142.082 1 25 11.7502 142.040 25 1005 120 10 300
1945268N12143 1945 65 WP MM JEAN 1945-09-25 06:00:00 TS 12.0007 141.615 main 1566 1562 O________OPO__ jtwc_wp WP211945 12.0000 141.600 25 -1 12.0000 141.600 TC 25 12.0030 141.661 1 25 12.0000 141.600 25 1005 180 10 301
1945268N12143 1945 65 WP MM JEAN 1945-09-25 09:00:00 TS 12.2505 141.203 main 1580 1572 P________PPP__ WP211945 12.2499 141.192 25 -1 12.2499 141.192 TC 25 12.2524 141.234 1 25 12.2499 141.192 25 1004 180 9 302
1945268N12143 1945 65 WP MM JEAN 1945-09-25 12:00:00 TS 12.5000 140.800 main 1585 1581 O________OOO__ jtwc_wp WP211945 12.5000 140.800 25 -1 12.5000 140.800 TC 25 12.5000 140.800 1 25 12.5000 140.800 25 1004 180 9 302
1945268N12143 1945 65 WP MM JEAN 1945-09-25 15:00:00 TS 12.7488 140.400 main 1592 1561 P________PPP__ WP211945 12.7499 140.415 25 -1 12.7499 140.415 TC 25 12.7458 140.357 1 25 12.7499 140.415 25 1004 210 9 302
1945268N12143 1945 65 WP MM JEAN 1945-09-25 18:00:00 TS 12.9981 139.977 main 1561 1510 O________OPO__ jtwc_wp WP211945 13.0000 140.000 25 -1 13.0000 140.000 TC 25 12.9923 139.907 1 25 13.0000 140.000 25 1004 240 10 299
1945268N12143 1945 65 WP MM JEAN 1945-09-25 21:00:00 TS 13.2482 139.494 main 1510 1462 P________PPP__ WP211945 13.2500 139.507 25 -1 13.2500 139.507 TC 25 13.2426 139.454 1 25 13.2500 139.507 25 1003 210 11 298
1945268N12143 1945 65 WP MM JEAN 1945-09-26 00:00:00 TS 13.5000 139.000 main 1462 1423 O________OOO__ jtwc_wp WP211945 13.5000 139.000 25 -1 13.5000 139.000 TC 25 13.5000 139.000 1 25 13.5000 139.000 25 1003 180 11 299
1945268N12143 1945 65 WP MM JEAN 1945-09-26 03:00:00 TS 13.7507 138.543 main 1415 1377 P________PPP__ WP211945 13.7424 138.542 25 -1 13.7424 138.542 TC 25 13.7757 138.546 1 26 13.7424 138.542 25 1002 210 10 300
1945268N12143 1945 65 WP MM JEAN 1945-09-26 06:00:00 TS 14.0143 138.098 main 1377 1340 O________OPO__ jtwc_wp WP211945 14.0000 138.100 25 -1 14.0000 138.100 TC 25 14.0572 138.092 1 27 14.0000 138.100 25 1001 240 10 303
1945268N12143 1945 65 WP MM JEAN 1945-09-26 09:00:00 TS 14.3144 137.643 main 1331 1294 P________PPP__ WP211945 14.3075 137.643 27 -1 14.3075 137.643 TC 27 14.3351 137.643 1 28 14.3075 137.643 27 1000 270 11 304
1945268N12143 1945 65 WP MM JEAN 1945-09-26 12:00:00 TS 14.6000 137.200 main 1294 1256 O________OOO__ jtwc_wp WP211945 14.6000 137.200 30 -1 14.6000 137.200 TC 30 14.6000 137.200 1 30 14.6000 137.200 30 999 300 10 301
1945268N12143 1945 65 WP MM JEAN 1945-09-26 15:00:00 TS 14.8173 136.793 main 1256 1219 P________PPP__ WP211945 14.8073 136.800 35 0 14.8073 136.800 TC 35 14.8471 136.772 1 33 14.8073 136.800 35 998 330 9 298
1945268N12143 1945 65 WP MM JEAN 1945-09-26 18:00:00 TS 15.0199 136.387 main 1219 1183 O________OPO__ jtwc_wp WP211945 15.0000 136.400 40 0 15.0000 136.400 TC 40 15.0795 136.350 1 37 15.0000 136.400 40 997 360 9 299
1945268N12143 1945 65 WP MM JEAN 1945-09-26 21:00:00 TS 15.2673 135.956 main 1186 1141 P________PPP__ WP211945 15.2574 135.965 42 0 15.2574 135.965 TC 42 15.2971 135.928 1 41 15.2574 135.965 42 995 360 10 299
1945268N12143 1945 65 WP MM JEAN 1945-09-27 00:00:00 TS 15.5000 135.500 main 1141 1097 O________OOO__ jtwc_wp WP211945 15.5000 135.500 45 0 15.5000 135.500 TC 45 15.5000 135.500 2 45 15.5000 135.500 45 994 360 10 293
1945268N12143 1945 65 WP MM JEAN 1945-09-27 03:00:00 TS 15.6644 135.007 main 1097 1061 P________PPP__ WP211945 15.6575 134.992 47 0 15.6575 134.992 TC 47 15.6852 135.053 2 47 15.6575 134.992 47 993 360 10 289
1945268N12143 1945 65 WP MM JEAN 1945-09-27 06:00:00 TS 15.8143 134.525 main 1051 1020 O________OPO__ jtwc_wp WP211945 15.8000 134.500 50 0 15.8000 134.500 TC 50 15.8573 134.599 2 50 15.8000 134.500 50 992 360 9 291
1945268N12143 1945 65 WP MM JEAN 1945-09-27 09:00:00 TS 16.0007 134.100 main 1020 991 P________PPP__ WP211945 15.9923 134.085 52 0 15.9923 134.085 TC 52 16.0258 134.146 2 52 15.9923 134.085 52 991 330 9 296
1945268N12143 1945 65 WP MM JEAN 1945-09-27 12:00:00 TS 16.2000 133.700 main 991 963 O________OOO__ jtwc_wp WP211945 16.2000 133.700 55 0 16.2000 133.700 TC 55 16.2000 133.700 2 55 16.2000 133.700 55 990 300 9 297
1945268N12143 1945 65 WP MM JEAN 1945-09-27 15:00:00 TS 16.3991 133.293 main 963 937 P________PPP__ WP211945 16.3999 133.307 57 0 16.3999 133.307 TC 57 16.3968 133.252 2 57 16.3999 133.307 57 988 300 9 297
1945268N12143 1945 65 WP MM JEAN 1945-09-27 18:00:00 TS 16.6000 132.878 main 937 903 O________OPO__ jtwc_wp WP211945 16.6000 132.900 60 0 16.6000 132.900 TC 60 16.5999 132.813 2 60 16.6000 132.900 60 987 300 9 296
1945268N12143 1945 65 WP MM JEAN 1945-09-27 21:00:00 TS 16.8065 132.424 main 903 882 P________PPP__ WP211945 16.8076 132.435 62 0 16.8076 132.435 TC 62 16.8031 132.392 2 62 16.8076 132.435 62 986 300 9 295
1945268N12143 1945 65 WP MM JEAN 1945-09-28 00:00:00 TS 17.0000 132.000 main 882 860 O________OOO__ jtwc_wp WP211945 17.0000 132.000 65 1 17.0000 132.000 TC 65 17.0000 132.000 3 65 17.0000 132.000 65 985 300 8 296
1945268N12143 1945 65 WP MM JEAN 1945-09-28 03:00:00 TS 17.1568 131.674 main 864 840 P________PPP__ WP211945 17.1498 131.685 67 1 17.1498 131.685 TC 67 17.1777 131.642 3 66 17.1498 131.685 67 983 330 7 298
1945268N12143 1945 65 WP MM JEAN 1945-09-28 06:00:00 TS 17.3124 131.378 main 840 817 O________OPO__ jtwc_wp WP211945 17.3000 131.400 70 1 17.3000 131.400 TC 70 17.3495 131.312 3 67 17.3000 131.400 70 982 360 7 300
1945268N12143 1945 65 WP MM JEAN 1945-09-28 09:00:00 TS 17.5054 131.038 main 813 797 P________PPP__ WP211945 17.5000 131.050 70 1 17.5000 131.050 TC 70 17.5216 131.001 3 68 17.5000 131.050 70 981 330 8 301
1945268N12143 1945 65 WP MM JEAN 1945-09-28 12:00:00 TS 17.7000 130.700 main 797 776 O________OOO__ jtwc_wp WP211945 17.7000 130.700 70 1 17.7000 130.700 TC 70 17.7000 130.700 4 70 17.7000 130.700 70 980 300 7 300
1945268N12143 1945 65 WP MM JEAN 1945-09-28 15:00:00 TS 17.8508 130.402 main 782 762 P________PPP__ WP211945 17.8424 130.392 72 1 17.8424 130.392 TC 72 17.8758 130.433 4 71 17.8424 130.392 72 978 330 6 300
1945268N12143 1945 65 WP MM JEAN 1945-09-28 18:00:00 TS 18.0153 130.117 main 762 759 O________OPO__ jtwc_wp WP211945 18.0000 130.100 75 1 18.0000 130.100 TC 75 18.0614 130.166 4 72 18.0000 130.100 75 977 360 7 305
1945268N12143 1945 65 WP MM JEAN 1945-09-28 21:00:00 TS 18.2314 129.839 main 751 749 P________PPP__ WP211945 18.2198 129.830 75 1 18.2198 129.830 TC 75 18.2663 129.867 4 73 18.2198 129.830 75 976 360 8 310
1945268N12143 1945 65 WP MM JEAN 1945-09-29 00:00:00 TS 18.5000 129.500 main 749 718 O________OOO__ jtwc_wp WP211945 18.5000 129.500 75 1 18.5000 129.500 TC 75 18.5000 129.500 4 75 18.5000 129.500 75 975 360 10 309
1945268N12143 1945 65 WP MM JEAN 1945-09-29 03:00:00 TS 18.8344 129.040 main 707 658 P________PPP__ WP211945 18.8499 129.045 77 1 18.8499 129.045 TC 77 18.7878 129.027 4 76 18.8499 129.045 77 974 360 12 305
1945268N12143 1945 65 WP MM JEAN 1945-09-29 06:00:00 TS 19.1751 128.496 main 658 599 O________OPO__ jtwc_wp WP211945 19.2000 128.500 80 1 19.2000 128.500 TC 80 19.1003 128.483 4 77 19.2000 128.500 80 973 360 12 300
1945268N12143 1945 65 WP MM JEAN 1945-09-29 09:00:00 TS 19.4575 127.905 main 601 545 P________PPP__ WP211945 19.4725 127.907 80 1 19.4725 127.907 TC 80 19.4126 127.898 4 78 19.4725 127.907 80 971 330 12 295
1945268N12143 1945 65 WP MM JEAN 1945-09-29 12:00:00 TS 19.7000 127.300 main 545 501 O________OOO__ jtwc_wp WP211945 19.7000 127.300 80 1 19.7000 127.300 TC 80 19.7000 127.300 4 80 19.7000 127.300 80 969 300 12 293
1945268N12143 1945 65 WP MM JEAN 1945-09-29 15:00:00 TS 19.9102 126.754 main 501 451 P________PPP__ WP211945 19.9072 126.750 82 1 19.9072 126.750 TC 82 19.9193 126.767 4 81 19.9072 126.750 82 967 300 11 291
1945268N12143 1945 65 WP MM JEAN 1945-09-29 18:00:00 TS 20.1032 126.206 main 451 415 O________OPO__ jtwc_wp WP211945 20.1000 126.200 85 2 20.1000 126.200 TC 85 20.1129 126.223 4 82 20.1000 126.200 85 966 300 11 290
1945268N12143 1945 65 WP MM JEAN 1945-09-29 21:00:00 TS 20.2940 125.644 main 406 367 P________PPP__ WP211945 20.2919 125.645 85 2 20.2919 125.645 TC 85 20.3002 125.642 4 83 20.2919 125.645 85 965 300 12 289
1945268N12143 1945 65 WP MM JEAN 1945-09-30 00:00:00 TS 20.5000 125.000 main 367 325 O________OOO__ jtwc_wp WP211945 20.5000 125.000 85 2 20.5000 125.000 TC 85 20.5000 125.000 4 85 20.5000 125.000 85 964 300 14 288
1945268N12143 1945 65 WP MM JEAN 1945-09-30 03:00:00 TS 20.7310 124.191 main 325 277 P________PPP__ WP211945 20.7428 124.173 87 2 20.7428 124.173 TC 87 20.6958 124.247 4 85 20.7428 124.173 87 963 300 16 287
1945268N12143 1945 65 WP MM JEAN 1945-09-30 06:00:00 TS 20.9778 123.334 main 267 192 O________OPO__ jtwc_wp WP211945 21.0000 123.300 90 2 21.0000 123.300 TC 90 20.9111 123.435 4 85 21.0000 123.300 90 963 300 16 289
1945268N12143 1945 65 WP MM JEAN 1945-09-30 09:00:00 TS 21.2408 122.569 main 192 103 P________PPP__ WP211945 21.2641 122.557 87 2 21.2641 122.557 TC 87 21.1707 122.606 4 85 21.2641 122.557 87 964 300 15 290
1945268N12143 1945 65 WP MM JEAN 1945-09-30 12:00:00 TS 21.5000 121.800 main 103 33 O________OOO__ jtwc_wp WP211945 21.5000 121.800 85 2 21.5000 121.800 TC 85 21.5000 121.800 4 85 21.5000 121.800 85 965 300 16 285
1945268N12143 1945 65 WP MM JEAN 1945-09-30 15:00:00 TS 21.6529 120.871 main 22 22 P________PPP__ WP211945 21.5607 120.861 82 1 21.5607 120.861 TC 82 21.9294 120.901 4 82 21.5607 120.861 82 966 300 17 285
1945268N12143 1945 65 WP MM JEAN 1945-09-30 18:00:00 TS 21.9567 120.014 main 63 60 O________OPO__ jtwc_wp WP211945 21.8000 120.000 80 1 21.8000 120.000 TC 80 22.4267 120.055 4 80 21.8000 120.000 80 968 300 18 306
1945268N12143 1945 65 WP MM JEAN 1945-09-30 21:00:00 TS 22.6766 119.331 main 92 88 P________PPP__ WP211945 22.5821 119.315 77 1 22.5821 119.315 TC 77 22.9603 119.380 4 77 22.5821 119.315 77 970 330 18 329
1945268N12143 1945 65 WP MM JEAN 1945-10-01 00:00:00 TS 23.5000 119.000 main 112 67 O________OOO__ jtwc_wp WP211945 23.5000 119.000 75 1 23.5000 119.000 TC 75 23.5000 119.000 4 75 23.5000 119.000 75 972 360 15 354
1945268N12143 1945 65 WP MM JEAN 1945-10-01 03:00:00 TS 24.1302 119.170 main 75 63 P________PPP__ WP211945 24.1674 119.213 72 1 24.1674 119.213 TC 72 24.0187 119.041 4 71 24.1674 119.213 72 973 330 13 26
1945268N12143 1945 65 WP MM JEAN 1945-10-01 06:00:00 TS 24.6591 119.621 main 60 45 O________OPO__ jtwc_wp WP211945 24.7000 119.700 70 1 24.7000 119.700 TC 70 24.5363 119.384 4 67 24.7000 119.700 70 975 300 13 39
1945268N12143 1945 65 WP MM JEAN 1945-10-01 09:00:00 TS 25.1062 120.036 main 45 45 P________PPP__ WP211945 25.1298 120.078 65 1 25.1298 120.078 TC 65 25.0356 119.911 4 63 25.1298 120.078 65 978 300 12 43
1945268N12143 1945 65 WP MM JEAN 1945-10-01 12:00:00 TS 25.5000 120.500 main 75 68 O________OOO__ jtwc_wp WP211945 25.5000 120.500 60 0 25.5000 120.500 TC 60 25.5000 120.500 2 60 25.5000 120.500 60 982 300 12 47
1945268N12143 1945 65 WP MM JEAN 1945-10-01 15:00:00 TS 25.9104 121.002 main 87 87 P________PPP__ WP211945 25.9075 120.985 52 0 25.9075 120.985 TC 52 25.9190 121.052 2 53 25.9075 120.985 52 985 300 12 49
1945268N12143 1945 65 WP MM JEAN 1945-10-01 18:00:00 TS 26.3001 121.515 main 122 122 O________OPO__ jtwc_wp WP211945 26.3000 121.500 45 0 26.3000 121.500 TC 45 26.3006 121.559 2 47 26.3000 121.500 45 988 300 12 50
1945268N12143 1945 65 WP MM JEAN 1945-10-01 21:00:00 TS 26.6594 122.012 main 156 156 P________PPP__ WP211945 26.6603 122.005 40 0 26.6603 122.005 TC 40 26.6569 122.036 2 41 26.6603 122.005 40 989 270 11 52
1945268N12143 1945 65 WP MM JEAN 1945-10-02 00:00:00 TS 27.0000 122.500 main 170 O________OOO__ jtwc_wp WP211945 27.0000 122.500 35 0 27.0000 122.500 TC 35 27.0000 122.500 2 35 27.0000 122.500 35 991 240 11 52

デジタル台風データ・検索

IBTrACS Databaseについて

本データベースは、米国NOAAが公開する1842年以降の世界の熱帯低気圧のベストトラックデータアーカイブInternational Best Track Archive for Climate Stewardship (IBTrACS)を、ウェブで閲覧しやすい形式に変換したものです。

最終更新日:2021-12-03